METAR Data

Data at: 2329 UTC 26 Feb 2020

METAR for:KEEN (Keene/Hopkins Arpt, NH, US)
Text:KEEN 262256Z AUTO 18004KT 10SM OVC044 07/01 A2993 RMK AO2 SLP143 T00670006 $
Temperature: 6.7°C ( 44°F)
Dewpoint: 0.6°C ( 33°F) [RH = 65%]
Pressure (altimeter):29.93 inches Hg (1013.6 mb) [Sea level pressure: 1014.3 mb]
Winds:from the S (180 degrees) at 5 MPH (4 knots; 2.1 m/s)
Visibility:10 or more sm (16+ km)
Ceiling:4400 feet AGL
Clouds: overcast cloud deck at 4400 feet AGL
QC Flag:automated observation with no human augmentation; SOME DATA ABOVE MAY BE INACCURATE!!!"$" is an indication the sensor requires maintenance.